sensor_id;sensor_type;location;lat;lon;timestamp;temperature;humidity
19522;DHT22;9905;52.126;5.596;2023-02-28T00:00:37;1.60;99.90
19522;DHT22;9905;52.126;5.596;2023-02-28T00:03:05;1.50;99.90
19522;DHT22;9905;52.126;5.596;2023-02-28T00:05:33;1.60;99.90
19522;DHT22;9905;52.126;5.596;2023-02-28T00:07:59;1.50;99.90
19522;DHT22;9905;52.126;5.596;2023-02-28T00:10:28;1.60;99.90
19522;DHT22;9905;52.126;5.596;2023-02-28T00:12:58;1.60;99.90
19522;DHT22;9905;52.126;5.596;2023-02-28T00:15:27;1.60;99.90
19522;DHT22;9905;52.126;5.596;2023-02-28T00:17:53;1.70;99.90
19522;DHT22;9905;52.126;5.596;2023-02-28T00:20:20;1.70;99.90
19522;DHT22;9905;52.126;5.596;2023-02-28T00:22:49;1.70;99.90
19522;DHT22;9905;52.126;5.596;2023-02-28T00:25:17;1.70;99.90
19522;DHT22;9905;52.126;5.596;2023-02-28T00:27:45;1.80;99.90
19522;DHT22;9905;52.126;5.596;2023-02-28T00:30:14;1.80;99.90
19522;DHT22;9905;52.126;5.596;2023-02-28T00:32:43;1.90;99.90
19522;DHT22;9905;52.126;5.596;2023-02-28T00:35:11;1.90;99.90
19522;DHT22;9905;52.126;5.596;2023-02-28T00:37:38;1.90;99.90
19522;DHT22;9905;52.126;5.596;2023-02-28T00:40:06;1.90;99.90
19522;DHT22;9905;52.126;5.596;2023-02-28T00:42:33;2.00;99.90
19522;DHT22;9905;52.126;5.596;2023-02-28T00:45:00;2.00;99.90
19522;DHT22;9905;52.126;5.596;2023-02-28T00:47:29;2.00;99.90
19522;DHT22;9905;52.126;5.596;2023-02-28T00:49:57;2.00;99.90
19522;DHT22;9905;52.126;5.596;2023-02-28T00:52:23;2.10;99.90
19522;DHT22;9905;52.126;5.596;2023-02-28T00:54:50;2.10;99.90
19522;DHT22;9905;52.126;5.596;2023-02-28T00:57:17;2.10;99.90
19522;DHT22;9905;52.126;5.596;2023-02-28T00:59:44;2.20;99.90
19522;DHT22;9905;52.126;5.596;2023-02-28T01:02:10;2.20;99.90
19522;DHT22;9905;52.126;5.596;2023-02-28T01:04:37;2.20;99.90
19522;DHT22;9905;52.126;5.596;2023-02-28T01:07:05;2.20;99.90
19522;DHT22;9905;52.126;5.596;2023-02-28T01:09:32;2.30;99.90
19522;DHT22;9905;52.126;5.596;2023-02-28T01:11:59;2.30;99.90
19522;DHT22;9905;52.126;5.596;2023-02-28T01:14:25;2.30;99.90
19522;DHT22;9905;52.126;5.596;2023-02-28T01:16:52;2.30;99.90
19522;DHT22;9905;52.126;5.596;2023-02-28T01:19:19;2.30;99.90
19522;DHT22;9905;52.126;5.596;2023-02-28T01:21:46;2.30;99.90
19522;DHT22;9905;52.126;5.596;2023-02-28T01:24:14;2.40;99.90
19522;DHT22;9905;52.126;5.596;2023-02-28T01:26:41;2.40;99.90
19522;DHT22;9905;52.126;5.596;2023-02-28T01:29:07;2.40;99.90
19522;DHT22;9905;52.126;5.596;2023-02-28T01:31:34;2.40;99.90
19522;DHT22;9905;52.126;5.596;2023-02-28T01:34:01;2.40;99.90
19522;DHT22;9905;52.126;5.596;2023-02-28T01:36:28;2.40;99.90
19522;DHT22;9905;52.126;5.596;2023-02-28T01:38:56;2.50;99.90
19522;DHT22;9905;52.126;5.596;2023-02-28T01:41:26;2.50;99.90
19522;DHT22;9905;52.126;5.596;2023-02-28T01:43:59;2.50;99.90
19522;DHT22;9905;52.126;5.596;2023-02-28T01:46:30;2.50;99.90
19522;DHT22;9905;52.126;5.596;2023-02-28T01:49:06;2.60;99.90
19522;DHT22;9905;52.126;5.596;2023-02-28T01:51:38;2.50;99.90
19522;DHT22;9905;52.126;5.596;2023-02-28T01:54:15;2.60;99.90
19522;DHT22;9905;52.126;5.596;2023-02-28T01:56:48;2.60;99.90
19522;DHT22;9905;52.126;5.596;2023-02-28T01:59:21;2.60;99.90
19522;DHT22;9905;52.126;5.596;2023-02-28T02:01:48;2.60;99.90
19522;DHT22;9905;52.126;5.596;2023-02-28T02:04:16;2.60;99.90
19522;DHT22;9905;52.126;5.596;2023-02-28T02:06:44;2.60;99.90
19522;DHT22;9905;52.126;5.596;2023-02-28T02:09:12;2.60;99.90
19522;DHT22;9905;52.126;5.596;2023-02-28T02:11:41;2.70;99.90
19522;DHT22;9905;52.126;5.596;2023-02-28T02:14:33;2.70;99.90
19522;DHT22;9905;52.126;5.596;2023-02-28T02:17:16;2.70;99.90
19522;DHT22;9905;52.126;5.596;2023-02-28T02:20:27;2.70;99.90
19522;DHT22;9905;52.126;5.596;2023-02-28T02:26:18;2.70;99.90
19522;DHT22;9905;52.126;5.596;2023-02-28T02:29:11;2.70;99.90
19522;DHT22;9905;52.126;5.596;2023-02-28T02:32:08;2.70;99.90
19522;DHT22;9905;52.126;5.596;2023-02-28T02:34:46;2.70;99.90
19522;DHT22;9905;52.126;5.596;2023-02-28T02:37:27;2.70;99.90
19522;DHT22;9905;52.126;5.596;2023-02-28T02:40:01;2.70;99.90
19522;DHT22;9905;52.126;5.596;2023-02-28T02:42:34;2.80;99.90
19522;DHT22;9905;52.126;5.596;2023-02-28T02:45:07;2.80;99.90
19522;DHT22;9905;52.126;5.596;2023-02-28T02:47:36;2.80;99.90
19522;DHT22;9905;52.126;5.596;2023-02-28T02:50:07;2.80;99.90
19522;DHT22;9905;52.126;5.596;2023-02-28T02:52:39;2.80;99.90
19522;DHT22;9905;52.126;5.596;2023-02-28T02:55:09;2.80;99.90
19522;DHT22;9905;52.126;5.596;2023-02-28T02:57:42;2.80;99.90
19522;DHT22;9905;52.126;5.596;2023-02-28T03:00:12;2.80;99.90
19522;DHT22;9905;52.126;5.596;2023-02-28T03:02:41;2.80;99.90
19522;DHT22;9905;52.126;5.596;2023-02-28T03:05:17;2.80;99.90
19522;DHT22;9905;52.126;5.596;2023-02-28T03:07:45;2.80;99.90
19522;DHT22;9905;52.126;5.596;2023-02-28T03:10:33;2.90;99.90
19522;DHT22;9905;52.126;5.596;2023-02-28T03:16:28;2.90;99.90
19522;DHT22;9905;52.126;5.596;2023-02-28T03:19:10;2.90;99.90
19522;DHT22;9905;52.126;5.596;2023-02-28T03:21:50;2.90;99.90
19522;DHT22;9905;52.126;5.596;2023-02-28T03:24:21;2.90;99.90
19522;DHT22;9905;52.126;5.596;2023-02-28T03:26:57;2.90;99.90
19522;DHT22;9905;52.126;5.596;2023-02-28T03:29:31;3.00;99.90
19522;DHT22;9905;52.126;5.596;2023-02-28T03:32:03;2.90;99.90
19522;DHT22;9905;52.126;5.596;2023-02-28T03:34:34;3.00;99.90
19522;DHT22;9905;52.126;5.596;2023-02-28T03:37:10;2.90;99.90
19522;DHT22;9905;52.126;5.596;2023-02-28T03:39:40;2.90;99.90
19522;DHT22;9905;52.126;5.596;2023-02-28T03:42:11;2.90;99.90
19522;DHT22;9905;52.126;5.596;2023-02-28T03:44:42;2.90;99.90
19522;DHT22;9905;52.126;5.596;2023-02-28T03:47:12;2.90;99.90
19522;DHT22;9905;52.126;5.596;2023-02-28T03:49:44;2.90;99.90
19522;DHT22;9905;52.126;5.596;2023-02-28T03:52:14;2.90;99.90
19522;DHT22;9905;52.126;5.596;2023-02-28T03:54:44;2.90;99.90
19522;DHT22;9905;52.126;5.596;2023-02-28T03:57:15;2.90;99.90
19522;DHT22;9905;52.126;5.596;2023-02-28T03:59:47;2.90;99.90
19522;DHT22;9905;52.126;5.596;2023-02-28T04:02:14;2.80;99.90
19522;DHT22;9905;52.126;5.596;2023-02-28T04:04:41;2.80;99.90
19522;DHT22;9905;52.126;5.596;2023-02-28T04:07:15;2.80;99.90
19522;DHT22;9905;52.126;5.596;2023-02-28T04:09:42;2.80;99.90
19522;DHT22;9905;52.126;5.596;2023-02-28T04:12:09;2.80;99.90
19522;DHT22;9905;52.126;5.596;2023-02-28T04:14:36;2.80;99.90
19522;DHT22;9905;52.126;5.596;2023-02-28T04:17:03;2.80;99.90
19522;DHT22;9905;52.126;5.596;2023-02-28T04:19:29;2.80;99.90
19522;DHT22;9905;52.126;5.596;2023-02-28T04:21:56;2.80;99.90
19522;DHT22;9905;52.126;5.596;2023-02-28T04:24:26;2.70;99.90
19522;DHT22;9905;52.126;5.596;2023-02-28T04:26:54;2.70;99.90
19522;DHT22;9905;52.126;5.596;2023-02-28T04:29:23;2.70;99.90
19522;DHT22;9905;52.126;5.596;2023-02-28T04:31:50;2.70;99.90
19522;DHT22;9905;52.126;5.596;2023-02-28T04:34:18;2.70;99.90
19522;DHT22;9905;52.126;5.596;2023-02-28T04:36:46;2.70;99.90
19522;DHT22;9905;52.126;5.596;2023-02-28T04:39:14;2.80;99.90
19522;DHT22;9905;52.126;5.596;2023-02-28T04:41:43;2.80;99.90
19522;DHT22;9905;52.126;5.596;2023-02-28T04:44:10;2.70;99.90
19522;DHT22;9905;52.126;5.596;2023-02-28T04:46:37;2.70;99.90
19522;DHT22;9905;52.126;5.596;2023-02-28T04:49:04;2.60;99.90
19522;DHT22;9905;52.126;5.596;2023-02-28T04:51:31;2.60;99.90
19522;DHT22;9905;52.126;5.596;2023-02-28T04:53:58;2.60;99.90
19522;DHT22;9905;52.126;5.596;2023-02-28T04:56:24;2.60;99.90
19522;DHT22;9905;52.126;5.596;2023-02-28T04:58:52;2.60;99.90
19522;DHT22;9905;52.126;5.596;2023-02-28T05:01:22;2.60;99.90
19522;DHT22;9905;52.126;5.596;2023-02-28T05:03:49;2.60;99.90
19522;DHT22;9905;52.126;5.596;2023-02-28T05:06:16;2.70;99.90
19522;DHT22;9905;52.126;5.596;2023-02-28T05:08:43;2.60;99.90
19522;DHT22;9905;52.126;5.596;2023-02-28T05:11:15;2.60;99.90
19522;DHT22;9905;52.126;5.596;2023-02-28T05:13:42;2.60;99.90
19522;DHT22;9905;52.126;5.596;2023-02-28T05:16:11;2.60;99.90
19522;DHT22;9905;52.126;5.596;2023-02-28T05:18:38;2.60;99.90
19522;DHT22;9905;52.126;5.596;2023-02-28T05:21:05;2.60;99.90
19522;DHT22;9905;52.126;5.596;2023-02-28T05:23:32;2.50;99.90
19522;DHT22;9905;52.126;5.596;2023-02-28T05:25:59;2.50;99.90
19522;DHT22;9905;52.126;5.596;2023-02-28T05:28:26;2.50;99.90
19522;DHT22;9905;52.126;5.596;2023-02-28T05:30:52;2.50;99.90
19522;DHT22;9905;52.126;5.596;2023-02-28T05:33:20;2.50;99.90
19522;DHT22;9905;52.126;5.596;2023-02-28T05:35:47;2.50;99.90
19522;DHT22;9905;52.126;5.596;2023-02-28T05:38:14;2.40;99.90
19522;DHT22;9905;52.126;5.596;2023-02-28T05:40:41;2.40;99.90
19522;DHT22;9905;52.126;5.596;2023-02-28T05:43:10;2.50;99.90
19522;DHT22;9905;52.126;5.596;2023-02-28T05:45:38;2.50;99.90
19522;DHT22;9905;52.126;5.596;2023-02-28T05:48:05;2.50;99.90
19522;DHT22;9905;52.126;5.596;2023-02-28T05:50:33;2.50;99.90
19522;DHT22;9905;52.126;5.596;2023-02-28T05:53:01;2.50;99.90
19522;DHT22;9905;52.126;5.596;2023-02-28T05:55:28;2.50;99.90
19522;DHT22;9905;52.126;5.596;2023-02-28T05:57:55;2.50;99.90
19522;DHT22;9905;52.126;5.596;2023-02-28T06:00:22;2.50;99.90
19522;DHT22;9905;52.126;5.596;2023-02-28T06:02:49;2.50;99.90
19522;DHT22;9905;52.126;5.596;2023-02-28T06:05:17;2.40;99.90
19522;DHT22;9905;52.126;5.596;2023-02-28T06:07:45;2.40;99.90
19522;DHT22;9905;52.126;5.596;2023-02-28T06:10:13;2.40;99.90
19522;DHT22;9905;52.126;5.596;2023-02-28T06:12:40;2.40;99.90
19522;DHT22;9905;52.126;5.596;2023-02-28T06:15:11;2.40;99.90
19522;DHT22;9905;52.126;5.596;2023-02-28T06:17:40;2.40;99.90
19522;DHT22;9905;52.126;5.596;2023-02-28T06:20:07;2.40;99.90
19522;DHT22;9905;52.126;5.596;2023-02-28T06:22:35;2.40;99.90
19522;DHT22;9905;52.126;5.596;2023-02-28T06:25:05;2.40;99.90
19522;DHT22;9905;52.126;5.596;2023-02-28T06:27:33;2.50;99.90
19522;DHT22;9905;52.126;5.596;2023-02-28T06:30:00;2.50;99.90
19522;DHT22;9905;52.126;5.596;2023-02-28T06:32:26;2.50;99.90
19522;DHT22;9905;52.126;5.596;2023-02-28T06:34:53;2.50;99.90
19522;DHT22;9905;52.126;5.596;2023-02-28T06:37:20;2.50;99.90
19522;DHT22;9905;52.126;5.596;2023-02-28T06:39:46;2.50;99.90
19522;DHT22;9905;52.126;5.596;2023-02-28T06:42:15;2.50;99.90
19522;DHT22;9905;52.126;5.596;2023-02-28T06:44:41;2.50;99.90
19522;DHT22;9905;52.126;5.596;2023-02-28T06:47:08;2.60;99.90
19522;DHT22;9905;52.126;5.596;2023-02-28T06:49:36;2.60;99.90
19522;DHT22;9905;52.126;5.596;2023-02-28T06:52:04;2.50;99.90
19522;DHT22;9905;52.126;5.596;2023-02-28T06:54:31;2.50;99.90
19522;DHT22;9905;52.126;5.596;2023-02-28T06:56:58;2.60;99.90
19522;DHT22;9905;52.126;5.596;2023-02-28T06:59:26;2.50;99.90
19522;DHT22;9905;52.126;5.596;2023-02-28T07:01:53;2.60;99.90
19522;DHT22;9905;52.126;5.596;2023-02-28T07:04:20;2.60;99.90
19522;DHT22;9905;52.126;5.596;2023-02-28T07:06:47;2.60;99.90
19522;DHT22;9905;52.126;5.596;2023-02-28T07:09:14;2.60;99.90
19522;DHT22;9905;52.126;5.596;2023-02-28T07:11:41;2.60;99.90
19522;DHT22;9905;52.126;5.596;2023-02-28T07:14:08;2.60;99.90
19522;DHT22;9905;52.126;5.596;2023-02-28T07:16:36;2.70;99.90
19522;DHT22;9905;52.126;5.596;2023-02-28T07:19:03;2.70;99.90
19522;DHT22;9905;52.126;5.596;2023-02-28T07:21:30;2.70;99.90
19522;DHT22;9905;52.126;5.596;2023-02-28T07:23:57;2.70;99.90
19522;DHT22;9905;52.126;5.596;2023-02-28T07:26:23;2.70;99.90
19522;DHT22;9905;52.126;5.596;2023-02-28T07:28:50;2.70;99.90
19522;DHT22;9905;52.126;5.596;2023-02-28T07:31:17;2.70;99.90
19522;DHT22;9905;52.126;5.596;2023-02-28T07:33:46;2.80;99.90
19522;DHT22;9905;52.126;5.596;2023-02-28T07:36:14;2.70;99.90
19522;DHT22;9905;52.126;5.596;2023-02-28T07:38:44;2.80;99.90
19522;DHT22;9905;52.126;5.596;2023-02-28T07:41:12;2.80;99.90
19522;DHT22;9905;52.126;5.596;2023-02-28T07:43:39;2.80;99.90
19522;DHT22;9905;52.126;5.596;2023-02-28T07:46:07;2.80;99.90
19522;DHT22;9905;52.126;5.596;2023-02-28T07:48:35;2.80;99.90
19522;DHT22;9905;52.126;5.596;2023-02-28T07:51:03;2.90;99.90
19522;DHT22;9905;52.126;5.596;2023-02-28T07:53:31;2.90;99.90
19522;DHT22;9905;52.126;5.596;2023-02-28T07:55:59;2.90;99.90
19522;DHT22;9905;52.126;5.596;2023-02-28T07:58:27;3.00;99.90
19522;DHT22;9905;52.126;5.596;2023-02-28T08:00:54;3.00;99.90
19522;DHT22;9905;52.126;5.596;2023-02-28T08:03:22;3.00;99.90
19522;DHT22;9905;52.126;5.596;2023-02-28T08:05:49;3.10;99.90
19522;DHT22;9905;52.126;5.596;2023-02-28T08:08:19;3.20;99.90
19522;DHT22;9905;52.126;5.596;2023-02-28T08:10:46;3.20;99.90
19522;DHT22;9905;52.126;5.596;2023-02-28T08:13:12;3.20;99.90
19522;DHT22;9905;52.126;5.596;2023-02-28T08:15:40;3.20;99.90
19522;DHT22;9905;52.126;5.596;2023-02-28T08:18:07;3.30;99.90
19522;DHT22;9905;52.126;5.596;2023-02-28T08:20:34;3.20;99.90
19522;DHT22;9905;52.126;5.596;2023-02-28T08:23:01;3.30;99.90
19522;DHT22;9905;52.126;5.596;2023-02-28T08:25:29;3.30;99.90
19522;DHT22;9905;52.126;5.596;2023-02-28T08:27:55;3.20;99.90
19522;DHT22;9905;52.126;5.596;2023-02-28T08:30:22;3.30;99.90
19522;DHT22;9905;52.126;5.596;2023-02-28T08:32:49;3.30;99.90
19522;DHT22;9905;52.126;5.596;2023-02-28T08:35:16;3.40;99.90
19522;DHT22;9905;52.126;5.596;2023-02-28T08:37:43;3.40;99.90
19522;DHT22;9905;52.126;5.596;2023-02-28T08:40:10;3.50;99.90
19522;DHT22;9905;52.126;5.596;2023-02-28T08:42:44;3.50;99.90
19522;DHT22;9905;52.126;5.596;2023-02-28T08:45:11;3.60;99.90
19522;DHT22;9905;52.126;5.596;2023-02-28T08:47:38;3.70;99.90
19522;DHT22;9905;52.126;5.596;2023-02-28T08:50:05;3.80;99.90
19522;DHT22;9905;52.126;5.596;2023-02-28T08:52:32;3.90;99.90
19522;DHT22;9905;52.126;5.596;2023-02-28T08:54:59;4.10;99.90
19522;DHT22;9905;52.126;5.596;2023-02-28T08:57:26;4.30;99.90
19522;DHT22;9905;52.126;5.596;2023-02-28T08:59:54;4.40;99.90
19522;DHT22;9905;52.126;5.596;2023-02-28T09:02:21;4.40;99.90
19522;DHT22;9905;52.126;5.596;2023-02-28T09:04:48;4.40;99.90
19522;DHT22;9905;52.126;5.596;2023-02-28T09:07:14;4.40;99.90
19522;DHT22;9905;52.126;5.596;2023-02-28T09:09:41;4.40;99.90
19522;DHT22;9905;52.126;5.596;2023-02-28T09:12:19;4.50;99.90
19522;DHT22;9905;52.126;5.596;2023-02-28T09:14:46;4.40;99.90
19522;DHT22;9905;52.126;5.596;2023-02-28T09:17:14;4.50;99.90
19522;DHT22;9905;52.126;5.596;2023-02-28T09:19:41;4.50;99.90
19522;DHT22;9905;52.126;5.596;2023-02-28T09:22:08;4.60;99.90
19522;DHT22;9905;52.126;5.596;2023-02-28T09:24:35;4.70;99.90
19522;DHT22;9905;52.126;5.596;2023-02-28T09:27:02;4.70;99.90
19522;DHT22;9905;52.126;5.596;2023-02-28T09:29:29;4.80;99.90
19522;DHT22;9905;52.126;5.596;2023-02-28T09:31:56;4.90;99.90
19522;DHT22;9905;52.126;5.596;2023-02-28T09:34:25;4.90;99.90
19522;DHT22;9905;52.126;5.596;2023-02-28T09:36:52;5.10;99.90
19522;DHT22;9905;52.126;5.596;2023-02-28T09:39:20;5.20;99.90
19522;DHT22;9905;52.126;5.596;2023-02-28T09:41:50;5.20;99.90
19522;DHT22;9905;52.126;5.596;2023-02-28T09:44:22;5.30;99.90
19522;DHT22;9905;52.126;5.596;2023-02-28T09:46:52;5.40;99.90
19522;DHT22;9905;52.126;5.596;2023-02-28T09:49:25;5.40;99.90
19522;DHT22;9905;52.126;5.596;2023-02-28T09:51:58;5.50;99.90
19522;DHT22;9905;52.126;5.596;2023-02-28T09:54:28;5.60;99.90
19522;DHT22;9905;52.126;5.596;2023-02-28T09:56:59;5.60;99.90
19522;DHT22;9905;52.126;5.596;2023-02-28T09:59:38;5.60;99.90
19522;DHT22;9905;52.126;5.596;2023-02-28T10:02:21;5.60;99.90
19522;DHT22;9905;52.126;5.596;2023-02-28T10:04:54;5.70;99.90
19522;DHT22;9905;52.126;5.596;2023-02-28T10:07:36;5.80;99.90
19522;DHT22;9905;52.126;5.596;2023-02-28T10:10:07;5.80;99.90
19522;DHT22;9905;52.126;5.596;2023-02-28T10:12:43;5.90;99.90
19522;DHT22;9905;52.126;5.596;2023-02-28T10:15:13;5.90;99.90
19522;DHT22;9905;52.126;5.596;2023-02-28T10:17:43;5.90;99.90
19522;DHT22;9905;52.126;5.596;2023-02-28T10:20:17;6.00;99.90
19522;DHT22;9905;52.126;5.596;2023-02-28T10:22:52;6.10;99.90
19522;DHT22;9905;52.126;5.596;2023-02-28T10:25:22;6.10;99.90
19522;DHT22;9905;52.126;5.596;2023-02-28T10:27:50;6.20;99.90
19522;DHT22;9905;52.126;5.596;2023-02-28T10:30:19;6.30;99.90
19522;DHT22;9905;52.126;5.596;2023-02-28T10:32:50;6.40;99.90
19522;DHT22;9905;52.126;5.596;2023-02-28T10:35:21;6.40;99.90
19522;DHT22;9905;52.126;5.596;2023-02-28T10:37:51;6.40;99.90
19522;DHT22;9905;52.126;5.596;2023-02-28T10:40:29;6.40;99.90
19522;DHT22;9905;52.126;5.596;2023-02-28T10:42:57;6.50;99.90
19522;DHT22;9905;52.126;5.596;2023-02-28T10:45:25;6.60;99.90
19522;DHT22;9905;52.126;5.596;2023-02-28T10:47:54;6.70;99.90
19522;DHT22;9905;52.126;5.596;2023-02-28T10:50:33;6.60;99.90
19522;DHT22;9905;52.126;5.596;2023-02-28T10:56:01;6.70;99.90
19522;DHT22;9905;52.126;5.596;2023-02-28T10:58:30;6.80;99.90
19522;DHT22;9905;52.126;5.596;2023-02-28T11:00:59;6.90;99.90
19522;DHT22;9905;52.126;5.596;2023-02-28T11:03:31;7.00;99.90
19522;DHT22;9905;52.126;5.596;2023-02-28T11:06:05;7.00;99.90
19522;DHT22;9905;52.126;5.596;2023-02-28T11:08:33;7.10;99.90
19522;DHT22;9905;52.126;5.596;2023-02-28T11:11:04;7.30;99.90
19522;DHT22;9905;52.126;5.596;2023-02-28T11:13:33;7.30;99.90
19522;DHT22;9905;52.126;5.596;2023-02-28T11:16:04;7.30;99.90
19522;DHT22;9905;52.126;5.596;2023-02-28T11:18:37;7.40;99.90
19522;DHT22;9905;52.126;5.596;2023-02-28T11:21:09;7.40;99.90
19522;DHT22;9905;52.126;5.596;2023-02-28T11:23:40;7.40;99.90
19522;DHT22;9905;52.126;5.596;2023-02-28T11:26:07;7.50;99.90
19522;DHT22;9905;52.126;5.596;2023-02-28T11:28:37;7.50;99.90
19522;DHT22;9905;52.126;5.596;2023-02-28T11:31:19;7.70;99.90
19522;DHT22;9905;52.126;5.596;2023-02-28T11:33:49;7.70;99.90
19522;DHT22;9905;52.126;5.596;2023-02-28T11:36:20;7.70;99.90
19522;DHT22;9905;52.126;5.596;2023-02-28T11:38:50;7.80;99.90
19522;DHT22;9905;52.126;5.596;2023-02-28T11:41:47;7.90;99.90
19522;DHT22;9905;52.126;5.596;2023-02-28T11:44:28;7.90;99.90
19522;DHT22;9905;52.126;5.596;2023-02-28T11:46:58;8.00;99.90
19522;DHT22;9905;52.126;5.596;2023-02-28T11:49:40;8.10;99.90
19522;DHT22;9905;52.126;5.596;2023-02-28T11:52:20;8.00;99.90
19522;DHT22;9905;52.126;5.596;2023-02-28T11:55:14;8.10;99.90
19522;DHT22;9905;52.126;5.596;2023-02-28T11:58:11;8.10;99.90
19522;DHT22;9905;52.126;5.596;2023-02-28T12:00:52;8.10;99.90
19522;DHT22;9905;52.126;5.596;2023-02-28T12:03:27;8.00;99.90
19522;DHT22;9905;52.126;5.596;2023-02-28T12:06:02;8.00;99.90
19522;DHT22;9905;52.126;5.596;2023-02-28T12:08:47;8.10;99.90
19522;DHT22;9905;52.126;5.596;2023-02-28T12:11:25;8.30;99.90
19522;DHT22;9905;52.126;5.596;2023-02-28T12:14:05;8.20;99.90
19522;DHT22;9905;52.126;5.596;2023-02-28T12:16:48;8.20;99.90
19522;DHT22;9905;52.126;5.596;2023-02-28T12:19:22;8.30;99.90
19522;DHT22;9905;52.126;5.596;2023-02-28T12:22:17;8.30;99.90
19522;DHT22;9905;52.126;5.596;2023-02-28T12:25:00;8.40;99.90
19522;DHT22;9905;52.126;5.596;2023-02-28T12:27:31;8.40;99.90
19522;DHT22;9905;52.126;5.596;2023-02-28T12:30:02;8.30;99.90
19522;DHT22;9905;52.126;5.596;2023-02-28T12:32:35;8.30;99.90
19522;DHT22;9905;52.126;5.596;2023-02-28T12:35:06;8.30;99.90
19522;DHT22;9905;52.126;5.596;2023-02-28T12:37:41;8.40;99.90
19522;DHT22;9905;52.126;5.596;2023-02-28T12:40:14;8.50;99.90
19522;DHT22;9905;52.126;5.596;2023-02-28T12:42:44;8.60;99.90
19522;DHT22;9905;52.126;5.596;2023-02-28T12:45:17;8.50;99.90
19522;DHT22;9905;52.126;5.596;2023-02-28T12:47:48;8.60;99.90
19522;DHT22;9905;52.126;5.596;2023-02-28T12:50:17;8.60;99.90
19522;DHT22;9905;52.126;5.596;2023-02-28T12:52:51;8.60;99.90
19522;DHT22;9905;52.126;5.596;2023-02-28T12:55:25;8.60;99.90
19522;DHT22;9905;52.126;5.596;2023-02-28T12:58:01;8.60;99.90
19522;DHT22;9905;52.126;5.596;2023-02-28T13:00:34;8.70;99.90
19522;DHT22;9905;52.126;5.596;2023-02-28T13:03:20;8.70;99.90
19522;DHT22;9905;52.126;5.596;2023-02-28T13:09:01;8.70;99.90
19522;DHT22;9905;52.126;5.596;2023-02-28T13:11:31;8.80;99.90
19522;DHT22;9905;52.126;5.596;2023-02-28T13:14:00;8.80;99.90
19522;DHT22;9905;52.126;5.596;2023-02-28T13:16:27;8.80;99.90
19522;DHT22;9905;52.126;5.596;2023-02-28T13:19:09;8.90;99.90
19522;DHT22;9905;52.126;5.596;2023-02-28T13:21:43;8.90;99.90
19522;DHT22;9905;52.126;5.596;2023-02-28T13:24:11;8.90;99.90
19522;DHT22;9905;52.126;5.596;2023-02-28T13:27:38;8.90;99.90
19522;DHT22;9905;52.126;5.596;2023-02-28T13:33:24;9.10;99.90
19522;DHT22;9905;52.126;5.596;2023-02-28T13:36:07;9.00;99.90
19522;DHT22;9905;52.126;5.596;2023-02-28T13:38:37;9.00;99.90
19522;DHT22;9905;52.126;5.596;2023-02-28T13:41:41;9.00;99.90
19522;DHT22;9905;52.126;5.596;2023-02-28T13:44:10;9.00;99.90
19522;DHT22;9905;52.126;5.596;2023-02-28T13:50:29;8.90;99.90
19522;DHT22;9905;52.126;5.596;2023-02-28T13:53:19;8.90;99.90
19522;DHT22;9905;52.126;5.596;2023-02-28T13:55:54;9.00;99.90
19522;DHT22;9905;52.126;5.596;2023-02-28T13:58:41;9.00;99.90
19522;DHT22;9905;52.126;5.596;2023-02-28T14:01:32;9.00;99.90
19522;DHT22;9905;52.126;5.596;2023-02-28T14:07:05;9.00;99.90
19522;DHT22;9905;52.126;5.596;2023-02-28T14:09:34;9.00;99.90
19522;DHT22;9905;52.126;5.596;2023-02-28T14:15:02;9.00;99.90
19522;DHT22;9905;52.126;5.596;2023-02-28T14:17:30;9.10;99.90
19522;DHT22;9905;52.126;5.596;2023-02-28T14:19:58;9.10;99.90
19522;DHT22;9905;52.126;5.596;2023-02-28T14:22:43;9.10;99.90
19522;DHT22;9905;52.126;5.596;2023-02-28T14:25:22;9.10;99.90
19522;DHT22;9905;52.126;5.596;2023-02-28T14:27:57;9.00;99.90
19522;DHT22;9905;52.126;5.596;2023-02-28T14:30:49;9.00;99.90
19522;DHT22;9905;52.126;5.596;2023-02-28T14:33:25;9.20;99.90
19522;DHT22;9905;52.126;5.596;2023-02-28T14:36:07;9.10;99.90
19522;DHT22;9905;52.126;5.596;2023-02-28T14:38:38;9.10;99.90
19522;DHT22;9905;52.126;5.596;2023-02-28T14:41:16;9.20;99.90
19522;DHT22;9905;52.126;5.596;2023-02-28T14:43:50;9.20;99.90
19522;DHT22;9905;52.126;5.596;2023-02-28T14:46:17;9.20;99.90
19522;DHT22;9905;52.126;5.596;2023-02-28T14:48:47;9.00;99.90
19522;DHT22;9905;52.126;5.596;2023-02-28T14:51:18;9.00;99.90
19522;DHT22;9905;52.126;5.596;2023-02-28T14:53:50;8.90;99.90
19522;DHT22;9905;52.126;5.596;2023-02-28T14:56:26;9.00;99.90
19522;DHT22;9905;52.126;5.596;2023-02-28T14:58:56;9.00;99.90
19522;DHT22;9905;52.126;5.596;2023-02-28T15:01:24;9.10;99.90
19522;DHT22;9905;52.126;5.596;2023-02-28T15:04:00;9.00;99.90
19522;DHT22;9905;52.126;5.596;2023-02-28T15:06:28;8.90;99.90
19522;DHT22;9905;52.126;5.596;2023-02-28T15:09:07;8.90;99.90
19522;DHT22;9905;52.126;5.596;2023-02-28T15:11:35;9.00;99.90
19522;DHT22;9905;52.126;5.596;2023-02-28T15:14:03;9.00;99.90
19522;DHT22;9905;52.126;5.596;2023-02-28T15:16:32;8.90;99.90
19522;DHT22;9905;52.126;5.596;2023-02-28T15:19:05;9.00;99.90
19522;DHT22;9905;52.126;5.596;2023-02-28T15:21:35;8.90;99.90
19522;DHT22;9905;52.126;5.596;2023-02-28T15:24:05;8.90;99.90
19522;DHT22;9905;52.126;5.596;2023-02-28T15:26:36;8.90;99.90
19522;DHT22;9905;52.126;5.596;2023-02-28T15:29:06;8.90;99.90
19522;DHT22;9905;52.126;5.596;2023-02-28T15:31:40;8.90;99.90
19522;DHT22;9905;52.126;5.596;2023-02-28T15:34:19;8.90;99.90
19522;DHT22;9905;52.126;5.596;2023-02-28T15:36:47;8.90;99.90
19522;DHT22;9905;52.126;5.596;2023-02-28T15:39:19;8.80;99.90
19522;DHT22;9905;52.126;5.596;2023-02-28T15:41:46;8.80;99.90
19522;DHT22;9905;52.126;5.596;2023-02-28T15:44:23;8.60;99.90
19522;DHT22;9905;52.126;5.596;2023-02-28T15:46:58;8.60;99.90
19522;DHT22;9905;52.126;5.596;2023-02-28T15:49:26;8.60;99.90
19522;DHT22;9905;52.126;5.596;2023-02-28T15:51:57;8.60;99.90
19522;DHT22;9905;52.126;5.596;2023-02-28T15:54:29;8.50;99.90
19522;DHT22;9905;52.126;5.596;2023-02-28T15:57:00;8.50;99.90
19522;DHT22;9905;52.126;5.596;2023-02-28T15:59:29;8.40;99.90
19522;DHT22;9905;52.126;5.596;2023-02-28T16:02:13;8.30;99.90
19522;DHT22;9905;52.126;5.596;2023-02-28T16:07:34;8.30;99.90
19522;DHT22;9905;52.126;5.596;2023-02-28T16:10:01;8.20;99.90
19522;DHT22;9905;52.126;5.596;2023-02-28T16:12:29;8.20;99.90
19522;DHT22;9905;52.126;5.596;2023-02-28T16:14:59;8.00;99.90
19522;DHT22;9905;52.126;5.596;2023-02-28T16:17:30;7.90;99.90
19522;DHT22;9905;52.126;5.596;2023-02-28T16:19:58;7.90;99.90
19522;DHT22;9905;52.126;5.596;2023-02-28T16:22:25;7.80;99.90
19522;DHT22;9905;52.126;5.596;2023-02-28T16:24:54;7.80;99.90
19522;DHT22;9905;52.126;5.596;2023-02-28T16:27:24;7.80;99.90
19522;DHT22;9905;52.126;5.596;2023-02-28T16:29:53;7.80;99.90
19522;DHT22;9905;52.126;5.596;2023-02-28T16:32:20;7.70;99.90
19522;DHT22;9905;52.126;5.596;2023-02-28T16:34:47;7.70;99.90
19522;DHT22;9905;52.126;5.596;2023-02-28T16:37:15;7.60;99.90
19522;DHT22;9905;52.126;5.596;2023-02-28T16:39:43;7.70;99.90
19522;DHT22;9905;52.126;5.596;2023-02-28T16:42:16;7.60;99.90
19522;DHT22;9905;52.126;5.596;2023-02-28T16:44:44;7.60;99.90
19522;DHT22;9905;52.126;5.596;2023-02-28T16:47:12;7.50;99.90
19522;DHT22;9905;52.126;5.596;2023-02-28T16:49:39;7.50;99.90
19522;DHT22;9905;52.126;5.596;2023-02-28T16:52:08;7.40;99.90
19522;DHT22;9905;52.126;5.596;2023-02-28T16:54:35;7.30;99.90